Time;durP1;ratioP1;P1;durP2;ratioP2;P2;SDS_P1;SDS_P2;PMS_P1;PMS_P2;Temp;Humidity;BMP_temperature;BMP_pressure;BME280_temperature;BME280_humidity;BME280_pressure;Samples;Min_cycle;Max_cycle;Signal;HPM_P1;HPM_P2
2022/03/04 00:01:58;;;;;;;30.55;19.60;;;;;;;;;;5031026;28;20029;-68
2022/03/04 00:04:23;;;;;;;29.40;20.38;;;;;;;;;;5033819;28;20032;-68
2022/03/04 00:06:49;;;;;;;30.60;16.50;;;;;;;;;;5041882;28;20036;-68
2022/03/04 00:09:15;;;;;;;24.52;14.38;;;;;;;;;;5035367;28;20034;-68
2022/03/04 00:11:41;;;;;;;22.00;13.88;;;;;;;;;;5037438;28;20029;-68
2022/03/04 00:14:08;;;;;;;18.95;13.05;;;;;;;;;;5032550;28;20074;-68
2022/03/04 00:16:34;;;;;;;28.65;18.05;;;;;;;;;;5031724;28;20041;-67
2022/03/04 00:19:10;;;;;;;21.30;13.95;;;;;;;;;;5031916;28;20029;-68
2022/03/04 00:21:48;;;;;;;26.17;17.15;;;;;;;;;;5034634;28;20035;-67
2022/03/04 00:24:16;;;;;;;17.75;12.65;;;;;;;;;;5035592;28;20037;-68
2022/03/04 00:26:42;;;;;;;15.07;12.07;;;;;;;;;;5038959;28;20504;-68
2022/03/04 00:29:09;;;;;;;17.60;12.32;;;;;;;;;;5037717;28;20087;-68
2022/03/04 00:31:36;;;;;;;20.48;13.15;;;;;;;;;;5039144;28;20029;-67
2022/03/04 00:34:06;;;;;;;22.85;15.77;;;;;;;;;;5031347;28;20478;-68
2022/03/04 00:36:32;;;;;;;19.35;13.80;;;;;;;;;;5034990;28;20053;-68
2022/03/04 00:38:58;;;;;;;22.65;14.70;;;;;;;;;;5034643;28;20025;-67
2022/03/04 00:41:24;;;;;;;18.42;14.57;;;;;;;;;;5035468;28;20079;-67
2022/03/04 00:43:51;;;;;;;19.77;14.70;;;;;;;;;;5034011;28;20068;-68
2022/03/04 00:46:18;;;;;;;23.55;15.52;;;;;;;;;;5035117;28;20758;-68
2022/03/04 00:48:44;;;;;;;21.40;16.33;;;;;;;;;;5031887;28;20040;-66
2022/03/04 00:51:12;;;;;;;21.70;15.95;;;;;;;;;;5035429;28;20036;-68
2022/03/04 00:53:38;;;;;;;20.40;15.98;;;;;;;;;;5035061;28;20052;-67
2022/03/04 00:56:06;;;;;;;23.55;16.77;;;;;;;;;;5034304;28;20473;-67
2022/03/04 00:58:32;;;;;;;30.42;18.38;;;;;;;;;;5033677;28;20035;-67
2022/03/04 01:00:58;;;;;;;29.98;17.77;;;;;;;;;;5034744;28;20025;-67
2022/03/04 01:03:23;;;;;;;29.40;20.95;;;;;;;;;;5034350;28;20036;-66
2022/03/04 01:05:50;;;;;;;23.80;16.67;;;;;;;;;;5042046;28;20036;-67
2022/03/04 01:08:16;;;;;;;22.73;17.02;;;;;;;;;;5041172;28;20033;-67
2022/03/04 01:10:41;;;;;;;23.77;16.08;;;;;;;;;;5037242;28;20048;-67
2022/03/04 01:13:07;;;;;;;23.75;16.65;;;;;;;;;;5039714;28;20128;-68
2022/03/04 01:15:33;;;;;;;28.10;16.88;;;;;;;;;;5041593;28;20091;-67
2022/03/04 01:17:59;;;;;;;22.95;16.42;;;;;;;;;;5037244;28;20037;-68
2022/03/04 01:20:24;;;;;;;25.85;16.48;;;;;;;;;;5039832;28;20418;-67
2022/03/04 01:22:50;;;;;;;26.33;17.40;;;;;;;;;;5042705;28;20108;-67
2022/03/04 01:25:16;;;;;;;30.15;17.77;;;;;;;;;;5036190;28;20055;-67
2022/03/04 01:27:41;;;;;;;26.33;17.65;;;;;;;;;;5035528;28;20034;-67
2022/03/04 01:30:09;;;;;;;24.80;17.95;;;;;;;;;;5037748;28;20029;-66
2022/03/04 01:32:36;;;;;;;22.55;17.20;;;;;;;;;;5037583;28;20117;-67
2022/03/04 01:35:03;;;;;;;26.90;17.73;;;;;;;;;;5034782;28;20036;-67
2022/03/04 01:37:29;;;;;;;24.75;17.77;;;;;;;;;;5039468;28;20038;-67
2022/03/04 01:39:54;;;;;;;34.38;18.48;;;;;;;;;;5036017;28;20436;-67
2022/03/04 01:42:20;;;;;;;26.65;17.50;;;;;;;;;;5041894;28;20044;-67
2022/03/04 01:44:46;;;;;;;30.83;18.60;;;;;;;;;;5040090;28;20469;-66
2022/03/04 01:47:12;;;;;;;25.65;18.58;;;;;;;;;;5037985;28;20128;-66
2022/03/04 01:49:40;;;;;;;27.83;18.00;;;;;;;;;;5033887;28;20034;-67
2022/03/04 01:52:07;;;;;;;26.50;17.83;;;;;;;;;;5038124;28;20021;-67
2022/03/04 01:54:33;;;;;;;28.45;19.02;;;;;;;;;;5040134;28;20025;-67
2022/03/04 01:56:59;;;;;;;32.90;19.38;;;;;;;;;;5040071;28;20036;-67
2022/03/04 01:59:25;;;;;;;25.50;18.52;;;;;;;;;;5045372;28;20390;-67
2022/03/04 02:01:52;;;;;;;27.83;18.02;;;;;;;;;;5034119;28;20029;-67
2022/03/04 02:04:21;;;;;;;32.10;17.95;;;;;;;;;;5040895;28;20044;-67
2022/03/04 02:06:49;;;;;;;30.58;19.23;;;;;;;;;;5036035;28;20066;-67
2022/03/04 02:09:15;;;;;;;25.10;17.88;;;;;;;;;;5040608;28;20032;-67
2022/03/04 02:11:43;;;;;;;27.05;18.40;;;;;;;;;;5034646;28;20434;-67
2022/03/04 02:14:12;;;;;;;23.40;18.23;;;;;;;;;;5033059;28;20021;-66
2022/03/04 02:16:46;;;;;;;25.08;18.83;;;;;;;;;;5031355;28;20051;-67
2022/03/04 02:19:11;;;;;;;23.05;17.70;;;;;;;;;;5036698;28;20040;-67
2022/03/04 02:21:41;;;;;;;23.83;18.00;;;;;;;;;;5039325;28;20037;-67
2022/03/04 02:24:07;;;;;;;25.83;17.75;;;;;;;;;;5036208;28;20029;-66
2022/03/04 02:26:33;;;;;;;21.42;16.67;;;;;;;;;;5033965;28;20383;-67
2022/03/04 02:28:58;;;;;;;29.42;18.27;;;;;;;;;;5036343;28;20039;-66
2022/03/04 02:31:24;;;;;;;26.95;17.33;;;;;;;;;;5044358;28;20040;-66
2022/03/04 02:33:50;;;;;;;29.17;18.20;;;;;;;;;;5035086;28;20037;-66
2022/03/04 02:36:16;;;;;;;26.30;17.13;;;;;;;;;;5041577;28;20033;-66
2022/03/04 02:38:42;;;;;;;26.60;16.98;;;;;;;;;;5035383;28;20025;-67
2022/03/04 02:41:08;;;;;;;23.55;17.00;;;;;;;;;;5041997;28;20112;-66
2022/03/04 02:43:34;;;;;;;25.63;17.05;;;;;;;;;;5034979;28;20083;-66
2022/03/04 02:45:59;;;;;;;24.40;16.83;;;;;;;;;;5034778;28;20072;-66
2022/03/04 02:48:25;;;;;;;29.60;17.73;;;;;;;;;;5032031;28;20120;-66
2022/03/04 02:50:51;;;;;;;23.27;16.70;;;;;;;;;;5036082;28;20088;-66
2022/03/04 02:53:17;;;;;;;26.63;17.50;;;;;;;;;;5030863;28;20061;-66
2022/03/04 02:55:43;;;;;;;25.33;17.70;;;;;;;;;;5029743;28;20103;-67
2022/03/04 02:58:09;;;;;;;23.60;16.38;;;;;;;;;;5040393;28;20087;-66
2022/03/04 03:00:35;;;;;;;25.23;18.38;;;;;;;;;;5043841;28;20037;-66
2022/03/04 03:03:01;;;;;;;28.38;18.60;;;;;;;;;;5033924;28;20087;-66
2022/03/04 03:05:26;;;;;;;30.23;18.23;;;;;;;;;;5037781;28;20025;-66
2022/03/04 03:07:52;;;;;;;28.33;17.80;;;;;;;;;;5033834;28;20040;-66
2022/03/04 03:10:18;;;;;;;28.50;18.42;;;;;;;;;;5029667;28;20083;-66
2022/03/04 03:12:44;;;;;;;26.15;18.98;;;;;;;;;;5033391;28;20079;-65
2022/03/04 03:15:11;;;;;;;43.28;17.92;;;;;;;;;;5033443;28;20118;-67
2022/03/04 03:17:38;;;;;;;28.08;18.05;;;;;;;;;;5035202;28;20074;-67
2022/03/04 03:20:05;;;;;;;25.77;17.67;;;;;;;;;;5041366;28;20033;-66
2022/03/04 03:22:31;;;;;;;29.75;19.02;;;;;;;;;;5036954;28;20035;-66
2022/03/04 03:24:56;;;;;;;28.15;17.83;;;;;;;;;;5032268;28;20037;-66
2022/03/04 03:27:22;;;;;;;22.65;16.25;;;;;;;;;;5034590;28;20042;-66
2022/03/04 03:29:48;;;;;;;26.13;16.67;;;;;;;;;;5034999;28;20048;-66
2022/03/04 03:32:14;;;;;;;24.75;17.73;;;;;;;;;;5031385;28;20045;-66
2022/03/04 03:34:40;;;;;;;20.98;17.33;;;;;;;;;;5037770;28;20025;-67
2022/03/04 03:37:07;;;;;;;24.02;17.45;;;;;;;;;;5030126;28;20025;-66
2022/03/04 03:39:33;;;;;;;22.90;16.60;;;;;;;;;;5034498;28;20032;-67
2022/03/04 03:41:59;;;;;;;22.90;17.63;;;;;;;;;;5032704;28;20030;-67
2022/03/04 03:44:24;;;;;;;23.13;17.92;;;;;;;;;;5037886;28;20029;-66
2022/03/04 03:46:50;;;;;;;24.40;17.67;;;;;;;;;;5033067;28;20513;-66
2022/03/04 03:49:16;;;;;;;24.83;18.83;;;;;;;;;;5031865;28;20083;-66
2022/03/04 03:51:41;;;;;;;23.60;17.00;;;;;;;;;;5037764;28;20033;-66
2022/03/04 03:54:07;;;;;;;24.15;17.98;;;;;;;;;;5041015;28;20064;-66
2022/03/04 03:56:33;;;;;;;26.92;18.67;;;;;;;;;;5034422;28;20037;-66
2022/03/04 03:58:59;;;;;;;23.85;18.20;;;;;;;;;;5031432;28;20034;-66
2022/03/04 04:01:25;;;;;;;23.80;17.17;;;;;;;;;;5030328;28;20037;-66
2022/03/04 04:03:51;;;;;;;29.42;17.98;;;;;;;;;;5034099;28;20035;-66
2022/03/04 04:06:17;;;;;;;27.90;19.08;;;;;;;;;;5040043;28;20083;-66
2022/03/04 04:08:42;;;;;;;25.80;17.30;;;;;;;;;;5036177;28;20021;-66
2022/03/04 04:11:08;;;;;;;25.23;17.88;;;;;;;;;;5033956;28;20102;-66
2022/03/04 04:13:34;;;;;;;27.77;18.00;;;;;;;;;;5037502;28;20028;-66
2022/03/04 04:16:01;;;;;;;24.95;18.85;;;;;;;;;;5041662;28;20040;-66
2022/03/04 04:18:26;;;;;;;29.88;18.52;;;;;;;;;;5041919;28;20029;-66
2022/03/04 04:20:52;;;;;;;28.20;18.50;;;;;;;;;;5031950;28;20122;-66
2022/03/04 04:23:18;;;;;;;29.38;18.17;;;;;;;;;;5035126;28;20033;-67
2022/03/04 04:25:44;;;;;;;24.50;18.83;;;;;;;;;;5037459;28;20049;-67
2022/03/04 04:28:09;;;;;;;29.35;19.13;;;;;;;;;;5031945;28;20037;-66
2022/03/04 04:30:35;;;;;;;31.42;18.17;;;;;;;;;;5034188;28;20168;-67
2022/03/04 04:33:01;;;;;;;25.40;17.23;;;;;;;;;;5035483;28;20087;-66
2022/03/04 04:35:26;;;;;;;24.15;17.88;;;;;;;;;;5037382;28;20025;-66
2022/03/04 04:37:52;;;;;;;22.30;17.00;;;;;;;;;;5034558;28;20136;-66
2022/03/04 04:40:18;;;;;;;24.98;17.70;;;;;;;;;;5038884;28;20425;-66
2022/03/04 04:42:44;;;;;;;26.98;18.15;;;;;;;;;;5041367;28;20115;-65
2022/03/04 04:45:10;;;;;;;23.13;18.02;;;;;;;;;;5035464;28;20044;-66
2022/03/04 04:47:36;;;;;;;26.23;18.42;;;;;;;;;;5037242;28;20034;-66
2022/03/04 04:50:02;;;;;;;23.48;16.88;;;;;;;;;;5036025;28;20036;-66
2022/03/04 04:52:29;;;;;;;23.52;18.30;;;;;;;;;;5041769;28;20036;-66
2022/03/04 04:54:54;;;;;;;23.00;17.33;;;;;;;;;;5033752;28;20022;-66
2022/03/04 04:57:20;;;;;;;23.05;17.13;;;;;;;;;;5041444;28;20057;-66
2022/03/04 04:59:46;;;;;;;28.65;17.83;;;;;;;;;;5041666;28;20039;-66
2022/03/04 05:02:11;;;;;;;30.92;18.33;;;;;;;;;;5037678;28;20140;-66
2022/03/04 05:04:37;;;;;;;29.23;17.80;;;;;;;;;;5037864;28;20107;-67
2022/03/04 05:07:03;;;;;;;25.33;18.13;;;;;;;;;;5033410;28;20033;-67
2022/03/04 05:09:29;;;;;;;23.58;17.35;;;;;;;;;;5040543;28;20029;-66
2022/03/04 05:11:55;;;;;;;23.67;18.02;;;;;;;;;;5035355;28;20041;-67
2022/03/04 05:14:20;;;;;;;31.17;18.30;;;;;;;;;;5036554;28;20033;-66
2022/03/04 05:16:46;;;;;;;28.33;18.38;;;;;;;;;;5037090;28;20585;-66
2022/03/04 05:19:12;;;;;;;21.38;17.05;;;;;;;;;;5036628;28;20382;-67
2022/03/04 05:21:37;;;;;;;25.90;17.42;;;;;;;;;;5042313;28;20112;-66
2022/03/04 05:24:06;;;;;;;23.65;17.40;;;;;;;;;;5040974;28;20032;-65
2022/03/04 05:26:38;;;;;;;26.10;17.80;;;;;;;;;;5037808;28;20077;-66
2022/03/04 05:29:09;;;;;;;32.40;18.02;;;;;;;;;;5033801;28;20044;-66
2022/03/04 05:31:36;;;;;;;28.73;18.67;;;;;;;;;;5036146;28;20036;-67
2022/03/04 05:34:02;;;;;;;24.45;18.40;;;;;;;;;;5035232;28;20028;-67
2022/03/04 05:36:28;;;;;;;30.30;18.92;;;;;;;;;;5042177;28;20037;-67
2022/03/04 05:38:54;;;;;;;24.67;17.83;;;;;;;;;;5041192;28;20048;-66
2022/03/04 05:41:20;;;;;;;33.60;18.83;;;;;;;;;;5040948;28;20037;-66
2022/03/04 05:43:48;;;;;;;30.98;18.48;;;;;;;;;;5032000;28;20092;-67
2022/03/04 05:46:14;;;;;;;25.73;17.95;;;;;;;;;;5034285;28;20033;-67
2022/03/04 05:48:40;;;;;;;25.73;17.88;;;;;;;;;;5040312;28;20059;-66
2022/03/04 05:51:06;;;;;;;24.85;17.38;;;;;;;;;;5030909;28;20041;-66
2022/03/04 05:53:33;;;;;;;24.70;17.30;;;;;;;;;;5036223;28;20025;-66
2022/03/04 05:56:04;;;;;;;30.25;17.33;;;;;;;;;;5036377;28;20124;-66
2022/03/04 05:58:30;;;;;;;25.60;17.70;;;;;;;;;;5031658;28;20047;-66
2022/03/04 06:00:56;;;;;;;30.08;17.15;;;;;;;;;;5030721;28;20128;-66
2022/03/04 06:03:21;;;;;;;23.98;17.08;;;;;;;;;;5037214;28;20139;-66
2022/03/04 06:05:47;;;;;;;24.23;17.13;;;;;;;;;;5039586;28;20033;-66
2022/03/04 06:08:13;;;;;;;25.85;17.77;;;;;;;;;;5035876;28;20118;-66
2022/03/04 06:10:39;;;;;;;22.25;17.10;;;;;;;;;;5032188;28;20026;-67
2022/03/04 06:13:04;;;;;;;21.00;16.75;;;;;;;;;;5032672;28;20038;-66
2022/03/04 06:15:30;;;;;;;20.45;16.50;;;;;;;;;;5033800;28;20112;-66
2022/03/04 06:17:56;;;;;;;26.65;18.30;;;;;;;;;;5035120;28;20463;-66
2022/03/04 06:20:22;;;;;;;26.92;17.17;;;;;;;;;;5035888;28;20041;-66
2022/03/04 06:22:48;;;;;;;24.33;17.08;;;;;;;;;;5033711;28;20033;-66
2022/03/04 06:25:14;;;;;;;25.83;17.58;;;;;;;;;;5033729;28;20042;-66
2022/03/04 06:28:02;;;;;;;23.67;16.48;;;;;;;;;;5037526;28;20029;-66
2022/03/04 06:30:31;;;;;;;20.98;16.48;;;;;;;;;;5038895;28;20033;-66
2022/03/04 06:35:43;;;;;;;26.02;16.60;;;;;;;;;;5037323;28;20458;-66
2022/03/04 06:38:09;;;;;;;25.30;17.42;;;;;;;;;;5040671;28;20107;-66
2022/03/04 06:40:36;;;;;;;25.70;16.40;;;;;;;;;;5039335;28;20040;-66
2022/03/04 06:43:03;;;;;;;28.70;17.77;;;;;;;;;;5030150;28;21044;-66
2022/03/04 06:45:28;;;;;;;28.35;17.42;;;;;;;;;;5040594;28;20028;-66
2022/03/04 06:47:54;;;;;;;27.25;17.38;;;;;;;;;;5034337;28;20029;-67
2022/03/04 06:50:20;;;;;;;31.38;17.48;;;;;;;;;;5033096;28;20328;-66
2022/03/04 06:52:45;;;;;;;23.60;17.17;;;;;;;;;;5037984;28;20112;-66
2022/03/04 06:55:11;;;;;;;22.58;17.05;;;;;;;;;;5035461;28;20545;-66
2022/03/04 06:57:39;;;;;;;27.42;16.95;;;;;;;;;;5035581;28;20033;-66
2022/03/04 07:00:07;;;;;;;29.75;18.05;;;;;;;;;;5030320;28;20029;-66
2022/03/04 07:02:37;;;;;;;23.33;17.05;;;;;;;;;;5036443;28;20100;-66
2022/03/04 07:05:04;;;;;;;30.38;17.63;;;;;;;;;;5034071;28;20033;-66
2022/03/04 07:07:30;;;;;;;28.00;18.25;;;;;;;;;;5033847;28;20091;-66
2022/03/04 07:09:56;;;;;;;23.42;17.95;;;;;;;;;;5033280;28;20466;-66
2022/03/04 07:12:21;;;;;;;28.30;17.30;;;;;;;;;;5040373;28;20039;-66
2022/03/04 07:14:47;;;;;;;25.25;17.02;;;;;;;;;;5033970;28;20115;-66
2022/03/04 07:17:14;;;;;;;21.20;16.98;;;;;;;;;;5029986;28;20029;-67
2022/03/04 07:19:40;;;;;;;24.52;16.45;;;;;;;;;;5031832;28;20442;-67
2022/03/04 07:22:06;;;;;;;25.08;15.98;;;;;;;;;;5044461;28;20041;-65
2022/03/04 07:24:32;;;;;;;28.17;17.23;;;;;;;;;;5042557;28;20025;-66
2022/03/04 07:26:58;;;;;;;26.17;17.90;;;;;;;;;;5032376;28;20039;-66
2022/03/04 07:29:24;;;;;;;29.80;17.27;;;;;;;;;;5033840;28;20032;-64
2022/03/04 07:31:53;;;;;;;24.70;16.42;;;;;;;;;;5030234;28;20431;-66
2022/03/04 07:34:20;;;;;;;21.40;16.85;;;;;;;;;;5031253;28;20486;-66
2022/03/04 07:36:46;;;;;;;27.35;16.55;;;;;;;;;;5039222;28;20079;-66
2022/03/04 07:39:12;;;;;;;22.50;16.20;;;;;;;;;;5031949;28;20040;-66
2022/03/04 07:41:38;;;;;;;24.95;16.80;;;;;;;;;;5035955;28;20608;-66
2022/03/04 07:44:05;;;;;;;20.55;16.88;;;;;;;;;;5031925;28;20087;-65
2022/03/04 07:46:31;;;;;;;20.13;16.35;;;;;;;;;;5032508;28;20087;-66
2022/03/04 07:48:57;;;;;;;24.98;16.45;;;;;;;;;;5036583;28;20033;-66
2022/03/04 07:51:23;;;;;;;22.45;15.65;;;;;;;;;;5034546;28;20437;-66
2022/03/04 07:53:49;;;;;;;31.90;16.73;;;;;;;;;;5037947;28;20030;-66
2022/03/04 07:56:14;;;;;;;20.30;15.30;;;;;;;;;;5037206;28;20025;-66
2022/03/04 07:58:40;;;;;;;20.05;16.05;;;;;;;;;;5036553;28;20092;-66
2022/03/04 08:01:07;;;;;;;23.10;15.88;;;;;;;;;;5029959;28;20068;-66
2022/03/04 08:03:32;;;;;;;19.70;15.35;;;;;;;;;;5042170;28;20056;-66
2022/03/04 08:05:58;;;;;;;24.80;14.90;;;;;;;;;;5037763;28;20067;-66
2022/03/04 08:08:24;;;;;;;21.88;15.18;;;;;;;;;;5036954;28;20033;-66
2022/03/04 08:10:49;;;;;;;24.30;14.45;;;;;;;;;;5034960;28;20087;-66
2022/03/04 08:13:15;;;;;;;16.75;13.43;;;;;;;;;;5039547;28;20037;-66
2022/03/04 08:15:41;;;;;;;24.65;15.35;;;;;;;;;;5036098;28;20026;-66
2022/03/04 08:18:07;;;;;;;20.95;13.50;;;;;;;;;;5037179;28;20033;-66
2022/03/04 08:20:33;;;;;;;21.73;14.05;;;;;;;;;;5040088;28;20091;-66
2022/03/04 08:22:59;;;;;;;20.38;15.00;;;;;;;;;;5039855;28;20042;-66
2022/03/04 08:25:25;;;;;;;23.50;14.07;;;;;;;;;;5041996;28;20049;-66
2022/03/04 08:27:52;;;;;;;16.95;13.20;;;;;;;;;;5038783;28;20129;-66
2022/03/04 08:30:18;;;;;;;17.73;13.63;;;;;;;;;;5043783;28;20033;-65
2022/03/04 08:32:44;;;;;;;18.08;12.90;;;;;;;;;;5038165;28;20124;-65
2022/03/04 08:35:10;;;;;;;17.10;13.50;;;;;;;;;;5032988;28;20036;-66
2022/03/04 08:37:37;;;;;;;20.60;14.02;;;;;;;;;;5038753;28;20040;-67
2022/03/04 08:40:05;;;;;;;23.55;14.57;;;;;;;;;;5034912;28;20056;-67
2022/03/04 08:42:31;;;;;;;22.15;13.77;;;;;;;;;;5036780;28;20708;-67
2022/03/04 08:44:57;;;;;;;17.77;13.48;;;;;;;;;;5036716;28;20509;-66
2022/03/04 08:47:22;;;;;;;19.08;13.20;;;;;;;;;;5045535;28;20029;-66
2022/03/04 08:49:48;;;;;;;17.30;12.40;;;;;;;;;;5034286;28;20033;-66
2022/03/04 08:52:14;;;;;;;17.85;13.65;;;;;;;;;;5038155;28;20152;-66
2022/03/04 08:54:40;;;;;;;17.40;13.27;;;;;;;;;;5039764;28;20025;-66
2022/03/04 08:57:06;;;;;;;17.65;13.35;;;;;;;;;;5036520;28;20035;-66
2022/03/04 08:59:32;;;;;;;18.33;13.30;;;;;;;;;;5036644;28;20024;-67
2022/03/04 09:01:58;;;;;;;20.25;12.93;;;;;;;;;;5033446;28;20532;-68
2022/03/04 09:04:24;;;;;;;19.23;13.15;;;;;;;;;;5032788;28;20032;-68
2022/03/04 09:06:49;;;;;;;25.35;13.27;;;;;;;;;;5039699;28;20394;-67
2022/03/04 09:09:15;;;;;;;20.83;13.13;;;;;;;;;;5035111;28;20037;-67
2022/03/04 09:11:42;;;;;;;19.75;12.98;;;;;;;;;;5036647;28;20068;-67
2022/03/04 09:14:07;;;;;;;23.15;13.65;;;;;;;;;;5035987;28;20029;-67
2022/03/04 09:16:33;;;;;;;19.13;12.98;;;;;;;;;;5032471;28;20037;-67
2022/03/04 09:18:59;;;;;;;23.45;14.15;;;;;;;;;;5035748;28;20382;-67
2022/03/04 09:21:26;;;;;;;18.52;12.80;;;;;;;;;;5042650;28;20033;-67
2022/03/04 09:23:53;;;;;;;17.23;12.60;;;;;;;;;;5038764;28;20137;-67
2022/03/04 09:26:19;;;;;;;19.20;12.70;;;;;;;;;;5036829;28;20041;-67
2022/03/04 09:28:44;;;;;;;17.40;12.65;;;;;;;;;;5033467;28;20383;-67
2022/03/04 09:31:10;;;;;;;14.30;11.50;;;;;;;;;;5039139;28;20041;-64
2022/03/04 09:33:36;;;;;;;17.48;12.43;;;;;;;;;;5031559;28;20030;-64
2022/03/04 09:36:03;;;;;;;21.63;13.35;;;;;;;;;;5036668;28;20052;-65
2022/03/04 09:38:29;;;;;;;16.63;11.95;;;;;;;;;;5033744;28;20037;-68
2022/03/04 09:40:54;;;;;;;19.77;11.90;;;;;;;;;;5037564;28;20029;-65
2022/03/04 09:43:22;;;;;;;13.85;11.63;;;;;;;;;;5031024;28;20079;-68
2022/03/04 09:45:49;;;;;;;18.38;11.70;;;;;;;;;;5034917;28;20112;-68
2022/03/04 09:48:18;;;;;;;16.67;12.50;;;;;;;;;;5042789;28;20029;-68
2022/03/04 09:50:47;;;;;;;19.08;11.98;;;;;;;;;;5034633;28;20512;-66
2022/03/04 09:53:14;;;;;;;13.77;10.38;;;;;;;;;;5040047;28;20041;-67
2022/03/04 09:55:41;;;;;;;15.38;11.00;;;;;;;;;;5034822;28;20056;-67
2022/03/04 09:58:15;;;;;;;20.90;12.10;;;;;;;;;;5039287;28;20033;-65
2022/03/04 10:00:43;;;;;;;18.85;10.82;;;;;;;;;;5035581;28;20597;-65
2022/03/04 10:03:30;;;;;;;18.33;12.05;;;;;;;;;;5033481;28;20041;-65
2022/03/04 10:05:59;;;;;;;14.68;11.38;;;;;;;;;;5035771;28;20516;-65
2022/03/04 10:08:26;;;;;;;14.32;11.55;;;;;;;;;;5038778;28;20044;-65
2022/03/04 10:10:54;;;;;;;14.02;11.52;;;;;;;;;;5030901;28;20393;-65
2022/03/04 10:13:43;;;;;;;17.70;12.23;;;;;;;;;;5040284;28;20060;-65
2022/03/04 10:16:09;;;;;;;13.73;10.90;;;;;;;;;;5030970;28;20120;-68
2022/03/04 10:18:34;;;;;;;16.55;10.90;;;;;;;;;;5039397;28;20040;-67
2022/03/04 10:21:00;;;;;;;25.00;12.27;;;;;;;;;;5039584;28;20030;-68
2022/03/04 10:23:27;;;;;;;15.63;10.70;;;;;;;;;;5034445;28;20116;-65
2022/03/04 10:25:59;;;;;;;15.48;10.98;;;;;;;;;;5034008;28;20686;-65
2022/03/04 10:28:29;;;;;;;16.50;10.83;;;;;;;;;;5029080;28;20461;-65
2022/03/04 10:30:56;;;;;;;18.38;11.43;;;;;;;;;;5031654;28;20033;-66
2022/03/04 10:33:25;;;;;;;15.85;9.63;;;;;;;;;;5035856;28;20056;-64
2022/03/04 10:36:10;;;;;;;20.55;10.13;;;;;;;;;;5037551;28;20033;-65
2022/03/04 10:38:37;;;;;;;14.00;10.13;;;;;;;;;;5035215;28;20032;-65
2022/03/04 10:41:29;;;;;;;17.05;10.55;;;;;;;;;;5036107;28;20639;-65
2022/03/04 10:43:56;;;;;;;17.25;10.30;;;;;;;;;;5032081;28;20103;-65
2022/03/04 10:46:22;;;;;;;16.65;12.30;;;;;;;;;;5033781;28;20351;-65
2022/03/04 10:48:56;;;;;;;19.25;12.40;;;;;;;;;;5036419;28;20449;-65
2022/03/04 10:51:39;;;;;;;25.45;12.40;;;;;;;;;;5037352;28;20029;-65
2022/03/04 10:54:15;;;;;;;15.75;12.23;;;;;;;;;;5033135;28;20061;-64
2022/03/04 10:56:51;;;;;;;22.65;12.32;;;;;;;;;;5034704;28;20586;-65
2022/03/04 10:59:19;;;;;;;15.50;10.73;;;;;;;;;;5031812;28;20028;-65
2022/03/04 11:01:48;;;;;;;21.65;12.70;;;;;;;;;;5033548;28;20028;-64
2022/03/04 11:04:19;;;;;;;16.58;12.70;;;;;;;;;;5034120;28;20044;-64
2022/03/04 11:06:46;;;;;;;16.88;10.02;;;;;;;;;;5043758;28;20075;-64
2022/03/04 11:09:16;;;;;;;15.52;10.35;;;;;;;;;;5034592;28;20025;-65
2022/03/04 11:11:43;;;;;;;18.02;9.75;;;;;;;;;;5035147;28;20063;-65
2022/03/04 11:14:12;;;;;;;17.02;8.48;;;;;;;;;;5034118;28;20062;-65
2022/03/04 11:16:39;;;;;;;20.95;8.70;;;;;;;;;;5035178;28;20496;-65
2022/03/04 11:19:09;;;;;;;11.20;7.88;;;;;;;;;;5034615;28;20469;-65
2022/03/04 11:21:35;;;;;;;9.13;7.63;;;;;;;;;;5035198;28;20105;-65
2022/03/04 11:24:01;;;;;;;12.65;8.38;;;;;;;;;;5033774;28;20115;-64
2022/03/04 11:26:31;;;;;;;9.63;7.53;;;;;;;;;;5036333;28;20460;-64
2022/03/04 11:28:59;;;;;;;9.98;7.38;;;;;;;;;;5033557;28;20125;-65
2022/03/04 11:31:26;;;;;;;14.68;7.35;;;;;;;;;;5035352;28;20041;-64
2022/03/04 11:34:00;;;;;;;13.95;7.63;;;;;;;;;;5032690;28;20108;-64
2022/03/04 11:36:29;;;;;;;10.95;7.20;;;;;;;;;;5030338;28;20037;-68
2022/03/04 11:39:08;;;;;;;8.55;6.65;;;;;;;;;;5032597;28;20437;-64
2022/03/04 11:41:39;;;;;;;8.75;6.85;;;;;;;;;;5036538;28;20029;-65
2022/03/04 11:44:15;;;;;;;9.38;7.22;;;;;;;;;;5035443;28;20390;-64
2022/03/04 11:47:05;;;;;;;12.38;7.47;;;;;;;;;;5034627;28;20033;-65
2022/03/04 11:49:48;;;;;;;11.05;6.45;;;;;;;;;;5030004;28;20034;-65
2022/03/04 11:52:20;;;;;;;7.80;6.50;;;;;;;;;;5029352;28;20041;-64
2022/03/04 11:54:49;;;;;;;15.93;6.95;;;;;;;;;;5035167;28;20116;-64
2022/03/04 11:57:15;;;;;;;11.85;6.95;;;;;;;;;;5030475;28;20486;-65
2022/03/04 11:59:48;;;;;;;9.73;6.57;;;;;;;;;;5034230;28;20029;-64
2022/03/04 12:02:19;;;;;;;11.57;7.03;;;;;;;;;;5033165;28;20030;-65
2022/03/04 12:04:45;;;;;;;7.00;6.30;;;;;;;;;;5030096;28;20034;-64
2022/03/04 12:07:10;;;;;;;10.00;7.28;;;;;;;;;;5036026;28;20034;-65
2022/03/04 12:09:37;;;;;;;11.15;6.38;;;;;;;;;;5036699;28;20029;-65
2022/03/04 12:12:29;;;;;;;7.28;6.28;;;;;;;;;;5041126;28;20478;-65
2022/03/04 12:15:17;;;;;;;11.10;6.95;;;;;;;;;;5030294;28;20393;-65
2022/03/04 12:18:28;;;;;;;13.25;6.63;;;;;;;;;;5029094;28;20029;-65
2022/03/04 12:20:58;;;;;;;9.50;6.20;;;;;;;;;;5014456;28;20033;-65
2022/03/04 12:23:33;;;;;;;9.15;5.90;;;;;;;;;;5018758;28;20038;-65
2022/03/04 12:25:59;;;;;;;9.77;5.80;;;;;;;;;;5018493;28;20044;-65
2022/03/04 12:28:32;;;;;;;9.93;6.38;;;;;;;;;;5021327;28;20045;-65
2022/03/04 12:31:01;;;;;;;8.95;6.43;;;;;;;;;;5023214;28;20025;-68
2022/03/04 12:33:32;;;;;;;7.68;6.72;;;;;;;;;;5022893;28;20133;-64
2022/03/04 12:36:00;;;;;;;7.50;6.65;;;;;;;;;;5020031;28;20494;-65
2022/03/04 12:38:31;;;;;;;7.15;6.40;;;;;;;;;;5023360;28;20044;-65
2022/03/04 12:40:57;;;;;;;10.13;6.35;;;;;;;;;;5019479;28;20360;-65
2022/03/04 12:43:23;;;;;;;9.30;6.63;;;;;;;;;;5016150;28;20034;-65
2022/03/04 12:45:51;;;;;;;13.45;5.90;;;;;;;;;;5020870;28;20565;-65
2022/03/04 12:48:18;;;;;;;10.10;6.47;;;;;;;;;;5024069;28;20037;-65
2022/03/04 12:50:44;;;;;;;8.75;6.25;;;;;;;;;;5019076;28;20033;-63
2022/03/04 12:53:20;;;;;;;11.18;6.22;;;;;;;;;;5027863;28;20026;-65
2022/03/04 12:55:57;;;;;;;10.63;6.35;;;;;;;;;;5030059;28;20038;-65
2022/03/04 12:58:44;;;;;;;9.77;6.63;;;;;;;;;;5031379;28;20025;-65
2022/03/04 13:01:11;;;;;;;7.70;5.68;;;;;;;;;;5034432;28;20110;-65
2022/03/04 13:03:37;;;;;;;7.68;5.78;;;;;;;;;;5039457;28;20036;-65
2022/03/04 13:06:03;;;;;;;9.02;6.22;;;;;;;;;;5033707;28;20494;-66
2022/03/04 13:08:33;;;;;;;7.28;5.72;;;;;;;;;;5034321;28;20067;-65
2022/03/04 13:11:17;;;;;;;10.20;5.93;;;;;;;;;;5032814;28;20052;-66
2022/03/04 13:13:51;;;;;;;11.98;5.50;;;;;;;;;;5033575;28;20033;-66
2022/03/04 13:16:24;;;;;;;9.55;5.93;;;;;;;;;;5041945;28;20099;-65
2022/03/04 13:18:50;;;;;;;11.30;6.10;;;;;;;;;;5032520;28;20095;-66
2022/03/04 13:21:16;;;;;;;7.68;5.63;;;;;;;;;;5044845;28;20049;-66
2022/03/04 13:23:50;;;;;;;9.00;5.95;;;;;;;;;;5034233;28;20025;-66
2022/03/04 13:26:16;;;;;;;8.40;6.00;;;;;;;;;;5036091;28;20079;-65
2022/03/04 13:28:52;;;;;;;8.18;5.75;;;;;;;;;;5033537;28;20470;-66
2022/03/04 13:31:42;;;;;;;6.20;5.47;;;;;;;;;;5032086;28;20041;-67
2022/03/04 13:34:11;;;;;;;11.73;6.07;;;;;;;;;;5034425;28;20405;-66
2022/03/04 13:36:41;;;;;;;9.93;5.60;;;;;;;;;;5032009;28;20395;-66
2022/03/04 13:39:09;;;;;;;9.30;4.90;;;;;;;;;;5038656;28;20038;-66
2022/03/04 13:41:36;;;;;;;8.32;5.97;;;;;;;;;;5032970;28;20108;-66
2022/03/04 13:44:07;;;;;;;7.07;5.28;;;;;;;;;;5042276;28;20074;-67
2022/03/04 13:46:33;;;;;;;6.97;4.93;;;;;;;;;;5034262;28;20082;-66
2022/03/04 13:49:00;;;;;;;9.80;5.30;;;;;;;;;;5034395;28;20068;-66
2022/03/04 13:51:26;;;;;;;12.15;6.18;;;;;;;;;;5044130;28;20043;-65
2022/03/04 13:53:59;;;;;;;9.55;5.97;;;;;;;;;;5037966;28;20026;-67
2022/03/04 13:56:25;;;;;;;12.98;6.05;;;;;;;;;;5033835;28;20039;-67
2022/03/04 13:58:59;;;;;;;9.32;6.22;;;;;;;;;;5041041;28;20032;-66
2022/03/04 14:01:25;;;;;;;14.50;5.22;;;;;;;;;;5031099;28;20052;-65
2022/03/04 14:03:51;;;;;;;5.13;4.18;;;;;;;;;;5033596;28;20037;-67
2022/03/04 14:06:22;;;;;;;4.25;3.28;;;;;;;;;;5038155;28;20041;-66
2022/03/04 14:08:48;;;;;;;5.05;3.22;;;;;;;;;;5036387;28;20032;-66
2022/03/04 14:11:14;;;;;;;6.03;3.65;;;;;;;;;;5033315;28;20038;-66
2022/03/04 14:13:41;;;;;;;4.00;2.70;;;;;;;;;;5031979;28;20490;-66
2022/03/04 14:16:10;;;;;;;5.32;2.80;;;;;;;;;;5034783;28;20045;-66
2022/03/04 14:18:36;;;;;;;8.57;3.03;;;;;;;;;;5039320;28;20031;-66
2022/03/04 14:21:06;;;;;;;4.07;2.47;;;;;;;;;;5035458;28;20034;-67
2022/03/04 14:23:33;;;;;;;3.00;2.60;;;;;;;;;;5036900;28;20036;-66
2022/03/04 14:25:59;;;;;;;11.85;2.92;;;;;;;;;;5037159;28;20172;-67
2022/03/04 14:28:25;;;;;;;9.20;2.92;;;;;;;;;;5033480;28;20029;-66